sensor_id;sensor_type;location;lat;lon;timestamp;temperature;humidity
51476;DHT22;37554;50.362;7.568;2023-08-30T00:00:32;22.40;57.30
51476;DHT22;37554;50.362;7.568;2023-08-30T00:02:58;22.50;57.40
51476;DHT22;37554;50.362;7.568;2023-08-30T00:05:24;22.40;57.40
51476;DHT22;37554;50.362;7.568;2023-08-30T00:07:49;22.40;57.40
51476;DHT22;37554;50.362;7.568;2023-08-30T00:10:15;22.40;57.40
51476;DHT22;37554;50.362;7.568;2023-08-30T00:12:40;22.40;57.50
51476;DHT22;37554;50.362;7.568;2023-08-30T00:15:06;22.40;57.50
51476;DHT22;37554;50.362;7.568;2023-08-30T00:17:32;22.40;57.50
51476;DHT22;37554;50.362;7.568;2023-08-30T00:19:58;22.40;57.50
51476;DHT22;37554;50.362;7.568;2023-08-30T00:22:25;22.40;57.60
51476;DHT22;37554;50.362;7.568;2023-08-30T00:24:52;22.40;57.60
51476;DHT22;37554;50.362;7.568;2023-08-30T00:27:18;22.40;57.60
51476;DHT22;37554;50.362;7.568;2023-08-30T00:29:46;22.40;57.60
51476;DHT22;37554;50.362;7.568;2023-08-30T00:32:11;22.40;57.70
51476;DHT22;37554;50.362;7.568;2023-08-30T00:34:37;22.30;57.70
51476;DHT22;37554;50.362;7.568;2023-08-30T00:37:03;22.30;57.70
51476;DHT22;37554;50.362;7.568;2023-08-30T00:39:28;22.40;57.80
51476;DHT22;37554;50.362;7.568;2023-08-30T00:41:54;22.30;57.70
51476;DHT22;37554;50.362;7.568;2023-08-30T00:44:19;22.30;57.80
51476;DHT22;37554;50.362;7.568;2023-08-30T00:46:45;22.30;57.80
51476;DHT22;37554;50.362;7.568;2023-08-30T00:49:11;22.30;57.80
51476;DHT22;37554;50.362;7.568;2023-08-30T00:51:37;22.30;57.90
51476;DHT22;37554;50.362;7.568;2023-08-30T00:54:02;22.30;57.90
51476;DHT22;37554;50.362;7.568;2023-08-30T00:56:29;22.30;58.00
51476;DHT22;37554;50.362;7.568;2023-08-30T00:58:55;22.30;58.00
51476;DHT22;37554;50.362;7.568;2023-08-30T01:01:21;22.30;58.00
51476;DHT22;37554;50.362;7.568;2023-08-30T01:03:48;22.20;58.10
51476;DHT22;37554;50.362;7.568;2023-08-30T01:06:13;22.30;58.10
51476;DHT22;37554;50.362;7.568;2023-08-30T01:08:41;22.20;58.50
51476;DHT22;37554;50.362;7.568;2023-08-30T01:11:26;22.20;58.10
51476;DHT22;37554;50.362;7.568;2023-08-30T01:14:09;22.20;58.20
51476;DHT22;37554;50.362;7.568;2023-08-30T01:16:38;22.20;58.20
51476;DHT22;37554;50.362;7.568;2023-08-30T01:22:33;22.20;58.30
51476;DHT22;37554;50.362;7.568;2023-08-30T01:27:38;22.20;58.30
51476;DHT22;37554;50.362;7.568;2023-08-30T01:30:06;22.20;58.20
51476;DHT22;37554;50.362;7.568;2023-08-30T01:32:34;22.20;58.40
51476;DHT22;37554;50.362;7.568;2023-08-30T01:35:00;22.10;58.30
51476;DHT22;37554;50.362;7.568;2023-08-30T01:37:27;22.20;58.40
51476;DHT22;37554;50.362;7.568;2023-08-30T01:39:54;22.20;58.40
51476;DHT22;37554;50.362;7.568;2023-08-30T01:42:20;22.10;58.40
51476;DHT22;37554;50.362;7.568;2023-08-30T01:44:49;22.10;58.40
51476;DHT22;37554;50.362;7.568;2023-08-30T01:47:15;22.10;58.40
51476;DHT22;37554;50.362;7.568;2023-08-30T01:49:42;22.10;58.40
51476;DHT22;37554;50.362;7.568;2023-08-30T01:52:10;22.10;58.50
51476;DHT22;37554;50.362;7.568;2023-08-30T01:54:36;22.10;58.50
51476;DHT22;37554;50.362;7.568;2023-08-30T01:57:03;22.10;58.60
51476;DHT22;37554;50.362;7.568;2023-08-30T01:59:29;22.10;58.60
51476;DHT22;37554;50.362;7.568;2023-08-30T02:01:55;22.10;58.60
51476;DHT22;37554;50.362;7.568;2023-08-30T02:04:22;22.10;58.60
51476;DHT22;37554;50.362;7.568;2023-08-30T02:06:56;22.10;58.60
51476;DHT22;37554;50.362;7.568;2023-08-30T02:09:28;22.10;58.70
51476;DHT22;37554;50.362;7.568;2023-08-30T02:11:55;22.10;58.70
51476;DHT22;37554;50.362;7.568;2023-08-30T02:14:22;22.00;58.70
51476;DHT22;37554;50.362;7.568;2023-08-30T02:16:50;22.00;58.70
51476;DHT22;37554;50.362;7.568;2023-08-30T02:19:17;22.00;58.70
51476;DHT22;37554;50.362;7.568;2023-08-30T02:21:46;22.00;58.70
51476;DHT22;37554;50.362;7.568;2023-08-30T02:24:11;22.00;58.80
51476;DHT22;37554;50.362;7.568;2023-08-30T02:26:37;22.00;58.80
51476;DHT22;37554;50.362;7.568;2023-08-30T02:29:03;22.00;58.80
51476;DHT22;37554;50.362;7.568;2023-08-30T02:31:29;22.00;58.80
51476;DHT22;37554;50.362;7.568;2023-08-30T02:33:54;21.90;58.80
51476;DHT22;37554;50.362;7.568;2023-08-30T02:36:20;21.90;58.80
51476;DHT22;37554;50.362;7.568;2023-08-30T02:38:45;21.90;58.80
51476;DHT22;37554;50.362;7.568;2023-08-30T02:41:11;21.90;58.90
51476;DHT22;37554;50.362;7.568;2023-08-30T02:43:37;21.90;59.00
51476;DHT22;37554;50.362;7.568;2023-08-30T02:46:03;21.90;59.00
51476;DHT22;37554;50.362;7.568;2023-08-30T02:48:33;21.90;59.00
51476;DHT22;37554;50.362;7.568;2023-08-30T02:50:59;21.90;59.00
51476;DHT22;37554;50.362;7.568;2023-08-30T02:53:24;21.90;59.10
51476;DHT22;37554;50.362;7.568;2023-08-30T02:55:50;21.80;59.00
51476;DHT22;37554;50.362;7.568;2023-08-30T02:58:16;21.90;59.70
51476;DHT22;37554;50.362;7.568;2023-08-30T03:00:41;21.80;59.00
51476;DHT22;37554;50.362;7.568;2023-08-30T03:03:07;21.80;59.10
51476;DHT22;37554;50.362;7.568;2023-08-30T03:05:32;21.80;59.20
51476;DHT22;37554;50.362;7.568;2023-08-30T03:07:58;21.80;59.20
51476;DHT22;37554;50.362;7.568;2023-08-30T03:10:24;21.80;59.10
51476;DHT22;37554;50.362;7.568;2023-08-30T03:12:49;21.80;59.20
51476;DHT22;37554;50.362;7.568;2023-08-30T03:15:15;21.80;59.20
51476;DHT22;37554;50.362;7.568;2023-08-30T03:17:41;21.70;59.20
51476;DHT22;37554;50.362;7.568;2023-08-30T03:20:07;21.70;59.20
51476;DHT22;37554;50.362;7.568;2023-08-30T03:22:33;21.70;59.20
51476;DHT22;37554;50.362;7.568;2023-08-30T03:24:58;21.70;59.20
51476;DHT22;37554;50.362;7.568;2023-08-30T03:27:24;21.70;59.20
51476;DHT22;37554;50.362;7.568;2023-08-30T03:29:50;21.70;59.30
51476;DHT22;37554;50.362;7.568;2023-08-30T03:32:17;21.70;59.20
51476;DHT22;37554;50.362;7.568;2023-08-30T03:34:46;21.70;59.30
51476;DHT22;37554;50.362;7.568;2023-08-30T03:37:16;21.60;59.20
51476;DHT22;37554;50.362;7.568;2023-08-30T03:39:42;21.60;59.30
51476;DHT22;37554;50.362;7.568;2023-08-30T03:42:08;21.60;59.30
51476;DHT22;37554;50.362;7.568;2023-08-30T03:44:34;21.60;59.40
51476;DHT22;37554;50.362;7.568;2023-08-30T03:47:00;21.60;59.30
51476;DHT22;37554;50.362;7.568;2023-08-30T03:49:26;21.50;59.30
51476;DHT22;37554;50.362;7.568;2023-08-30T03:51:51;21.60;59.30
51476;DHT22;37554;50.362;7.568;2023-08-30T03:54:17;21.50;59.30
51476;DHT22;37554;50.362;7.568;2023-08-30T03:56:43;21.50;59.90
51476;DHT22;37554;50.362;7.568;2023-08-30T03:59:09;21.50;59.30
51476;DHT22;37554;50.362;7.568;2023-08-30T04:01:35;21.50;59.40
51476;DHT22;37554;50.362;7.568;2023-08-30T04:04:01;21.50;59.40
51476;DHT22;37554;50.362;7.568;2023-08-30T04:06:26;21.50;59.50
51476;DHT22;37554;50.362;7.568;2023-08-30T04:08:52;21.40;60.10
51476;DHT22;37554;50.362;7.568;2023-08-30T04:11:17;21.40;59.50
51476;DHT22;37554;50.362;7.568;2023-08-30T04:13:43;21.40;59.60
51476;DHT22;37554;50.362;7.568;2023-08-30T04:16:09;21.40;59.60
51476;DHT22;37554;50.362;7.568;2023-08-30T04:18:34;21.40;59.70
51476;DHT22;37554;50.362;7.568;2023-08-30T04:21:00;21.30;59.70
51476;DHT22;37554;50.362;7.568;2023-08-30T04:23:28;21.30;59.70
51476;DHT22;37554;50.362;7.568;2023-08-30T04:25:54;21.30;59.80
51476;DHT22;37554;50.362;7.568;2023-08-30T04:28:20;21.30;59.80
51476;DHT22;37554;50.362;7.568;2023-08-30T04:30:46;21.30;59.80
51476;DHT22;37554;50.362;7.568;2023-08-30T04:33:12;21.30;59.80
51476;DHT22;37554;50.362;7.568;2023-08-30T04:35:38;21.30;60.00
51476;DHT22;37554;50.362;7.568;2023-08-30T04:38:04;21.30;60.00
51476;DHT22;37554;50.362;7.568;2023-08-30T04:40:31;21.30;60.00
51476;DHT22;37554;50.362;7.568;2023-08-30T04:42:58;21.30;60.00
51476;DHT22;37554;50.362;7.568;2023-08-30T04:45:24;21.20;60.00
51476;DHT22;37554;50.362;7.568;2023-08-30T04:47:50;21.20;59.90
51476;DHT22;37554;50.362;7.568;2023-08-30T04:50:15;21.20;60.00
51476;DHT22;37554;50.362;7.568;2023-08-30T04:52:42;21.20;60.00
51476;DHT22;37554;50.362;7.568;2023-08-30T04:55:08;21.20;60.00
51476;DHT22;37554;50.362;7.568;2023-08-30T04:57:34;21.20;60.00
51476;DHT22;37554;50.362;7.568;2023-08-30T04:59:59;21.20;60.10
51476;DHT22;37554;50.362;7.568;2023-08-30T05:02:29;21.20;60.00
51476;DHT22;37554;50.362;7.568;2023-08-30T05:04:55;21.20;60.10
51476;DHT22;37554;50.362;7.568;2023-08-30T05:07:20;21.20;60.10
51476;DHT22;37554;50.362;7.568;2023-08-30T05:09:46;21.20;60.10
51476;DHT22;37554;50.362;7.568;2023-08-30T05:12:12;21.10;60.10
51476;DHT22;37554;50.362;7.568;2023-08-30T05:14:37;21.20;60.20
51476;DHT22;37554;50.362;7.568;2023-08-30T05:17:03;21.20;60.20
51476;DHT22;37554;50.362;7.568;2023-08-30T05:19:29;21.20;60.30
51476;DHT22;37554;50.362;7.568;2023-08-30T05:21:54;21.20;60.20
51476;DHT22;37554;50.362;7.568;2023-08-30T05:24:21;21.20;60.20
51476;DHT22;37554;50.362;7.568;2023-08-30T05:26:46;21.20;60.30
51476;DHT22;37554;50.362;7.568;2023-08-30T05:29:13;21.20;60.20
51476;DHT22;37554;50.362;7.568;2023-08-30T05:31:39;21.20;60.20
51476;DHT22;37554;50.362;7.568;2023-08-30T05:34:05;21.20;60.20
51476;DHT22;37554;50.362;7.568;2023-08-30T05:36:31;21.20;60.20
51476;DHT22;37554;50.362;7.568;2023-08-30T05:38:56;21.20;60.20
51476;DHT22;37554;50.362;7.568;2023-08-30T05:41:22;21.20;60.20
51476;DHT22;37554;50.362;7.568;2023-08-30T05:43:47;21.20;60.10
51476;DHT22;37554;50.362;7.568;2023-08-30T05:46:13;21.20;60.10
51476;DHT22;37554;50.362;7.568;2023-08-30T05:48:40;21.20;60.10
51476;DHT22;37554;50.362;7.568;2023-08-30T05:51:05;21.30;60.10
51476;DHT22;37554;50.362;7.568;2023-08-30T05:53:31;21.20;60.20
51476;DHT22;37554;50.362;7.568;2023-08-30T05:55:57;21.20;60.00
51476;DHT22;37554;50.362;7.568;2023-08-30T05:58:22;21.30;60.00
51476;DHT22;37554;50.362;7.568;2023-08-30T06:00:48;21.30;60.00
51476;DHT22;37554;50.362;7.568;2023-08-30T06:03:13;21.30;60.00
51476;DHT22;37554;50.362;7.568;2023-08-30T06:05:39;21.30;60.00
51476;DHT22;37554;50.362;7.568;2023-08-30T06:08:04;21.30;59.90
51476;DHT22;37554;50.362;7.568;2023-08-30T06:10:30;21.40;59.90
51476;DHT22;37554;50.362;7.568;2023-08-30T06:12:56;21.40;59.80
51476;DHT22;37554;50.362;7.568;2023-08-30T06:15:21;21.20;60.00
51476;DHT22;37554;50.362;7.568;2023-08-30T06:17:47;20.90;60.60
51476;DHT22;37554;50.362;7.568;2023-08-30T06:20:12;20.70;61.40
51476;DHT22;37554;50.362;7.568;2023-08-30T06:22:38;20.40;62.10
51476;DHT22;37554;50.362;7.568;2023-08-30T06:25:05;20.20;62.90
51476;DHT22;37554;50.362;7.568;2023-08-30T06:27:32;20.10;63.40
51476;DHT22;37554;50.362;7.568;2023-08-30T06:29:57;20.00;63.80
51476;DHT22;37554;50.362;7.568;2023-08-30T06:32:23;19.90;63.90
51476;DHT22;37554;50.362;7.568;2023-08-30T06:34:49;19.90;64.10
51476;DHT22;37554;50.362;7.568;2023-08-30T06:37:14;19.80;64.30
51476;DHT22;37554;50.362;7.568;2023-08-30T06:39:40;19.80;64.50
51476;DHT22;37554;50.362;7.568;2023-08-30T06:42:06;19.80;64.40
51476;DHT22;37554;50.362;7.568;2023-08-30T06:44:31;19.80;64.60
51476;DHT22;37554;50.362;7.568;2023-08-30T06:46:57;19.80;64.80
51476;DHT22;37554;50.362;7.568;2023-08-30T06:49:23;19.70;65.00
51476;DHT22;37554;50.362;7.568;2023-08-30T06:51:49;19.70;65.20
51476;DHT22;37554;50.362;7.568;2023-08-30T06:54:15;19.70;65.30
51476;DHT22;37554;50.362;7.568;2023-08-30T06:56:40;19.60;65.20
51476;DHT22;37554;50.362;7.568;2023-08-30T06:59:06;19.70;65.40
51476;DHT22;37554;50.362;7.568;2023-08-30T07:01:31;20.00;64.80
51476;DHT22;37554;50.362;7.568;2023-08-30T07:03:57;20.30;64.10
51476;DHT22;37554;50.362;7.568;2023-08-30T07:06:23;20.60;63.50
51476;DHT22;37554;50.362;7.568;2023-08-30T07:08:49;20.80;62.90
51476;DHT22;37554;50.362;7.568;2023-08-30T07:11:15;21.00;62.50
51476;DHT22;37554;50.362;7.568;2023-08-30T07:13:40;21.20;62.10
51476;DHT22;37554;50.362;7.568;2023-08-30T07:16:06;21.30;61.80
51476;DHT22;37554;50.362;7.568;2023-08-30T07:18:31;21.40;61.40
51476;DHT22;37554;50.362;7.568;2023-08-30T07:20:57;21.50;61.10
51476;DHT22;37554;50.362;7.568;2023-08-30T07:23:23;21.60;60.90
51476;DHT22;37554;50.362;7.568;2023-08-30T07:25:48;21.70;60.60
51476;DHT22;37554;50.362;7.568;2023-08-30T07:28:16;21.80;60.40
51476;DHT22;37554;50.362;7.568;2023-08-30T07:30:42;21.90;60.10
51476;DHT22;37554;50.362;7.568;2023-08-30T07:33:07;22.00;59.80
51476;DHT22;37554;50.362;7.568;2023-08-30T07:35:33;22.10;59.60
51476;DHT22;37554;50.362;7.568;2023-08-30T07:37:58;22.20;59.40
51476;DHT22;37554;50.362;7.568;2023-08-30T07:40:24;22.30;59.20
51476;DHT22;37554;50.362;7.568;2023-08-30T07:42:52;22.40;59.10
51476;DHT22;37554;50.362;7.568;2023-08-30T07:45:18;22.50;58.90
51476;DHT22;37554;50.362;7.568;2023-08-30T07:47:43;22.50;58.70
51476;DHT22;37554;50.362;7.568;2023-08-30T07:50:09;22.60;58.60
51476;DHT22;37554;50.362;7.568;2023-08-30T07:52:35;22.70;58.30
51476;DHT22;37554;50.362;7.568;2023-08-30T07:55:00;22.80;58.10
51476;DHT22;37554;50.362;7.568;2023-08-30T07:57:26;22.90;58.00
51476;DHT22;37554;50.362;7.568;2023-08-30T07:59:52;23.00;57.80
51476;DHT22;37554;50.362;7.568;2023-08-30T08:02:17;23.10;57.50
51476;DHT22;37554;50.362;7.568;2023-08-30T08:04:43;23.30;57.40
51476;DHT22;37554;50.362;7.568;2023-08-30T08:07:09;23.40;57.20
51476;DHT22;37554;50.362;7.568;2023-08-30T08:09:34;23.50;56.80
51476;DHT22;37554;50.362;7.568;2023-08-30T08:12:00;23.10;57.00
51476;DHT22;37554;50.362;7.568;2023-08-30T08:14:25;22.70;57.60
51476;DHT22;37554;50.362;7.568;2023-08-30T08:16:51;22.40;58.10
51476;DHT22;37554;50.362;7.568;2023-08-30T08:19:17;22.10;58.90
51476;DHT22;37554;50.362;7.568;2023-08-30T08:21:42;21.90;59.30
51476;DHT22;37554;50.362;7.568;2023-08-30T08:24:08;21.80;59.90
51476;DHT22;37554;50.362;7.568;2023-08-30T08:26:34;21.80;60.30
51476;DHT22;37554;50.362;7.568;2023-08-30T08:28:59;21.80;60.30
51476;DHT22;37554;50.362;7.568;2023-08-30T08:31:25;21.80;60.40
51476;DHT22;37554;50.362;7.568;2023-08-30T08:34:04;21.80;60.40
51476;DHT22;37554;50.362;7.568;2023-08-30T08:36:30;21.90;60.50
51476;DHT22;37554;50.362;7.568;2023-08-30T08:38:55;21.90;60.30
51476;DHT22;37554;50.362;7.568;2023-08-30T08:41:22;21.90;60.30
51476;DHT22;37554;50.362;7.568;2023-08-30T08:43:51;22.10;60.30
51476;DHT22;37554;50.362;7.568;2023-08-30T08:46:17;22.30;60.60
51476;DHT22;37554;50.362;7.568;2023-08-30T08:48:45;22.40;60.20
51476;DHT22;37554;50.362;7.568;2023-08-30T08:51:12;22.50;60.00
51476;DHT22;37554;50.362;7.568;2023-08-30T08:53:39;22.60;59.90
51476;DHT22;37554;50.362;7.568;2023-08-30T08:56:07;22.60;59.70
51476;DHT22;37554;50.362;7.568;2023-08-30T08:58:36;22.70;60.10
51476;DHT22;37554;50.362;7.568;2023-08-30T09:01:04;22.80;59.00
51476;DHT22;37554;50.362;7.568;2023-08-30T09:03:32;22.90;58.70
51476;DHT22;37554;50.362;7.568;2023-08-30T09:05:58;23.00;58.50
51476;DHT22;37554;50.362;7.568;2023-08-30T09:08:24;23.10;57.80
51476;DHT22;37554;50.362;7.568;2023-08-30T09:10:51;23.20;57.30
51476;DHT22;37554;50.362;7.568;2023-08-30T09:13:17;23.40;56.70
51476;DHT22;37554;50.362;7.568;2023-08-30T09:15:43;23.40;56.40
51476;DHT22;37554;50.362;7.568;2023-08-30T09:18:16;23.50;56.20
51476;DHT22;37554;50.362;7.568;2023-08-30T09:20:42;23.50;55.30
51476;DHT22;37554;50.362;7.568;2023-08-30T09:23:20;23.50;54.10
51476;DHT22;37554;50.362;7.568;2023-08-30T09:25:46;23.60;54.90
51476;DHT22;37554;50.362;7.568;2023-08-30T09:28:12;23.70;54.80
51476;DHT22;37554;50.362;7.568;2023-08-30T09:30:39;23.80;54.30
51476;DHT22;37554;50.362;7.568;2023-08-30T09:33:05;23.90;54.40
51476;DHT22;37554;50.362;7.568;2023-08-30T09:35:31;24.00;54.20
51476;DHT22;37554;50.362;7.568;2023-08-30T09:37:57;23.90;53.90
51476;DHT22;37554;50.362;7.568;2023-08-30T09:40:23;24.00;54.00
51476;DHT22;37554;50.362;7.568;2023-08-30T09:42:48;24.10;54.10
51476;DHT22;37554;50.362;7.568;2023-08-30T09:45:23;24.20;54.10
51476;DHT22;37554;50.362;7.568;2023-08-30T09:47:49;24.20;53.90
51476;DHT22;37554;50.362;7.568;2023-08-30T09:50:20;24.30;53.70
51476;DHT22;37554;50.362;7.568;2023-08-30T09:52:49;24.20;53.70
51476;DHT22;37554;50.362;7.568;2023-08-30T09:55:16;23.90;53.60
51476;DHT22;37554;50.362;7.568;2023-08-30T09:57:44;23.90;54.00
51476;DHT22;37554;50.362;7.568;2023-08-30T10:00:10;23.80;53.40
51476;DHT22;37554;50.362;7.568;2023-08-30T10:02:42;23.80;53.30
51476;DHT22;37554;50.362;7.568;2023-08-30T10:05:10;23.80;52.40
51476;DHT22;37554;50.362;7.568;2023-08-30T10:07:36;23.70;52.70
51476;DHT22;37554;50.362;7.568;2023-08-30T10:10:05;23.60;52.80
51476;DHT22;37554;50.362;7.568;2023-08-30T10:12:34;23.60;52.60
51476;DHT22;37554;50.362;7.568;2023-08-30T10:15:00;23.60;52.40
51476;DHT22;37554;50.362;7.568;2023-08-30T10:17:32;23.70;52.80
51476;DHT22;37554;50.362;7.568;2023-08-30T10:19:59;23.80;52.60
51476;DHT22;37554;50.362;7.568;2023-08-30T10:22:25;23.90;52.30
51476;DHT22;37554;50.362;7.568;2023-08-30T10:24:56;23.80;51.80
51476;DHT22;37554;50.362;7.568;2023-08-30T10:27:24;23.70;51.50
51476;DHT22;37554;50.362;7.568;2023-08-30T10:29:50;23.70;51.60
51476;DHT22;37554;50.362;7.568;2023-08-30T10:32:20;23.50;51.50
51476;DHT22;37554;50.362;7.568;2023-08-30T10:34:48;23.50;51.70
51476;DHT22;37554;50.362;7.568;2023-08-30T10:37:22;23.40;51.50
51476;DHT22;37554;50.362;7.568;2023-08-30T10:39:52;23.40;51.60
51476;DHT22;37554;50.362;7.568;2023-08-30T10:42:22;23.50;51.60
51476;DHT22;37554;50.362;7.568;2023-08-30T10:44:52;23.60;51.40
51476;DHT22;37554;50.362;7.568;2023-08-30T10:47:28;24.00;50.90
51476;DHT22;37554;50.362;7.568;2023-08-30T10:50:00;24.50;50.30
51476;DHT22;37554;50.362;7.568;2023-08-30T10:52:29;24.80;49.60
51476;DHT22;37554;50.362;7.568;2023-08-30T10:57:32;25.30;48.50
51476;DHT22;37554;50.362;7.568;2023-08-30T11:02:33;25.50;47.80
51476;DHT22;37554;50.362;7.568;2023-08-30T11:05:00;25.50;47.80
51476;DHT22;37554;50.362;7.568;2023-08-30T11:07:26;25.40;48.00
51476;DHT22;37554;50.362;7.568;2023-08-30T11:09:55;25.30;48.10
51476;DHT22;37554;50.362;7.568;2023-08-30T11:12:20;25.20;48.10
51476;DHT22;37554;50.362;7.568;2023-08-30T11:14:56;25.10;48.30
51476;DHT22;37554;50.362;7.568;2023-08-30T11:17:23;25.10;48.40
51476;DHT22;37554;50.362;7.568;2023-08-30T11:19:57;25.10;48.60
51476;DHT22;37554;50.362;7.568;2023-08-30T11:22:24;25.00;48.50
51476;DHT22;37554;50.362;7.568;2023-08-30T11:24:50;25.10;48.70
51476;DHT22;37554;50.362;7.568;2023-08-30T11:27:17;25.10;48.70
51476;DHT22;37554;50.362;7.568;2023-08-30T11:29:43;25.10;48.70
51476;DHT22;37554;50.362;7.568;2023-08-30T11:32:09;25.10;48.70
51476;DHT22;37554;50.362;7.568;2023-08-30T11:34:34;25.10;48.70
51476;DHT22;37554;50.362;7.568;2023-08-30T11:37:00;25.00;48.70
51476;DHT22;37554;50.362;7.568;2023-08-30T11:39:28;25.00;48.60
51476;DHT22;37554;50.362;7.568;2023-08-30T11:41:54;25.00;48.80
51476;DHT22;37554;50.362;7.568;2023-08-30T11:44:23;24.90;48.90
51476;DHT22;37554;50.362;7.568;2023-08-30T11:46:48;24.90;49.00
51476;DHT22;37554;50.362;7.568;2023-08-30T11:49:16;25.00;49.10
51476;DHT22;37554;50.362;7.568;2023-08-30T11:51:42;25.10;48.90
51476;DHT22;37554;50.362;7.568;2023-08-30T11:54:08;25.30;48.50
51476;DHT22;37554;50.362;7.568;2023-08-30T11:56:35;25.50;48.00
51476;DHT22;37554;50.362;7.568;2023-08-30T11:59:01;25.80;47.50
51476;DHT22;37554;50.362;7.568;2023-08-30T12:01:28;26.20;47.00
51476;DHT22;37554;50.362;7.568;2023-08-30T12:03:54;26.40;46.60
51476;DHT22;37554;50.362;7.568;2023-08-30T12:25:21;27.20;44.00
51476;DHT22;37554;50.362;7.568;2023-08-30T12:27:49;26.90;44.70
51476;DHT22;37554;50.362;7.568;2023-08-30T12:30:17;26.70;45.20
51476;DHT22;37554;50.362;7.568;2023-08-30T12:32:47;26.50;45.70
51476;DHT22;37554;50.362;7.568;2023-08-30T12:35:13;26.30;46.00
51476;DHT22;37554;50.362;7.568;2023-08-30T12:37:39;26.30;46.20
51476;DHT22;37554;50.362;7.568;2023-08-30T12:40:05;26.10;46.30
51476;DHT22;37554;50.362;7.568;2023-08-30T12:42:32;26.00;46.40
51476;DHT22;37554;50.362;7.568;2023-08-30T12:44:58;25.90;46.40
51476;DHT22;37554;50.362;7.568;2023-08-30T12:47:23;26.00;46.60
51476;DHT22;37554;50.362;7.568;2023-08-30T12:49:49;26.00;46.40
51476;DHT22;37554;50.362;7.568;2023-08-30T12:52:15;26.00;46.40
51476;DHT22;37554;50.362;7.568;2023-08-30T12:54:41;26.20;46.30
51476;DHT22;37554;50.362;7.568;2023-08-30T12:57:07;26.10;46.20
51476;DHT22;37554;50.362;7.568;2023-08-30T12:59:32;25.90;46.40
51476;DHT22;37554;50.362;7.568;2023-08-30T13:01:58;25.60;46.90
51476;DHT22;37554;50.362;7.568;2023-08-30T13:04:24;25.50;47.00
51476;DHT22;37554;50.362;7.568;2023-08-30T13:06:49;25.50;47.20
51476;DHT22;37554;50.362;7.568;2023-08-30T13:09:16;25.40;47.50
51476;DHT22;37554;50.362;7.568;2023-08-30T13:11:42;25.40;47.60
51476;DHT22;37554;50.362;7.568;2023-08-30T13:14:07;25.50;47.30
51476;DHT22;37554;50.362;7.568;2023-08-30T13:16:33;25.30;47.60
51476;DHT22;37554;50.362;7.568;2023-08-30T13:18:58;25.90;47.20
51476;DHT22;37554;50.362;7.568;2023-08-30T13:21:24;27.20;45.70
51476;DHT22;37554;50.362;7.568;2023-08-30T13:23:50;28.60;44.00
51476;DHT22;37554;50.362;7.568;2023-08-30T13:26:15;29.90;41.70
51476;DHT22;37554;50.362;7.568;2023-08-30T13:28:41;29.90;40.80
51476;DHT22;37554;50.362;7.568;2023-08-30T13:31:07;30.20;40.50
51476;DHT22;37554;50.362;7.568;2023-08-30T13:33:33;31.40;39.70
51476;DHT22;37554;50.362;7.568;2023-08-30T13:35:59;32.10;38.60
51476;DHT22;37554;50.362;7.568;2023-08-30T13:38:24;33.00;37.60
51476;DHT22;37554;50.362;7.568;2023-08-30T13:40:50;33.40;36.60
51476;DHT22;37554;50.362;7.568;2023-08-30T13:43:16;32.60;36.30
51476;DHT22;37554;50.362;7.568;2023-08-30T13:45:42;32.70;37.10
51476;DHT22;37554;50.362;7.568;2023-08-30T13:48:12;33.30;36.40
51476;DHT22;37554;50.362;7.568;2023-08-30T13:50:41;33.50;36.00
51476;DHT22;37554;50.362;7.568;2023-08-30T13:53:07;33.40;36.00
51476;DHT22;37554;50.362;7.568;2023-08-30T13:55:32;32.50;36.60
51476;DHT22;37554;50.362;7.568;2023-08-30T13:57:58;31.20;37.80
51476;DHT22;37554;50.362;7.568;2023-08-30T14:00:24;30.10;39.10
51476;DHT22;37554;50.362;7.568;2023-08-30T14:02:50;29.70;39.90
51476;DHT22;37554;50.362;7.568;2023-08-30T14:05:17;29.10;40.30
51476;DHT22;37554;50.362;7.568;2023-08-30T14:07:43;28.50;40.90
51476;DHT22;37554;50.362;7.568;2023-08-30T14:10:09;27.90;41.60
51476;DHT22;37554;50.362;7.568;2023-08-30T14:12:36;27.30;42.40
51476;DHT22;37554;50.362;7.568;2023-08-30T14:15:02;26.70;43.20
51476;DHT22;37554;50.362;7.568;2023-08-30T14:17:28;26.40;43.80
51476;DHT22;37554;50.362;7.568;2023-08-30T14:19:53;26.10;44.50
51476;DHT22;37554;50.362;7.568;2023-08-30T14:22:19;26.00;45.00
51476;DHT22;37554;50.362;7.568;2023-08-30T14:24:45;26.00;45.20
51476;DHT22;37554;50.362;7.568;2023-08-30T14:27:11;26.10;45.30
51476;DHT22;37554;50.362;7.568;2023-08-30T14:29:38;26.10;45.30
51476;DHT22;37554;50.362;7.568;2023-08-30T14:32:03;26.10;45.30
51476;DHT22;37554;50.362;7.568;2023-08-30T14:34:29;26.00;45.50
51476;DHT22;37554;50.362;7.568;2023-08-30T14:36:55;25.70;46.00
51476;DHT22;37554;50.362;7.568;2023-08-30T14:39:21;25.50;46.50
51476;DHT22;37554;50.362;7.568;2023-08-30T14:41:47;25.30;47.40
51476;DHT22;37554;50.362;7.568;2023-08-30T14:44:12;25.10;48.60
51476;DHT22;37554;50.362;7.568;2023-08-30T14:46:38;25.00;49.40
51476;DHT22;37554;50.362;7.568;2023-08-30T14:49:03;24.90;49.70
51476;DHT22;37554;50.362;7.568;2023-08-30T14:51:29;24.70;50.40
51476;DHT22;37554;50.362;7.568;2023-08-30T14:53:55;24.40;50.90
51476;DHT22;37554;50.362;7.568;2023-08-30T14:56:20;24.10;52.20
51476;DHT22;37554;50.362;7.568;2023-08-30T14:58:46;23.90;53.50
51476;DHT22;37554;50.362;7.568;2023-08-30T15:01:14;23.90;54.00
51476;DHT22;37554;50.362;7.568;2023-08-30T15:03:41;24.10;53.70
51476;DHT22;37554;50.362;7.568;2023-08-30T15:06:06;24.40;53.60
51476;DHT22;37554;50.362;7.568;2023-08-30T15:08:32;24.50;53.30
51476;DHT22;37554;50.362;7.568;2023-08-30T15:10:58;24.60;53.20
51476;DHT22;37554;50.362;7.568;2023-08-30T15:13:23;24.70;53.20
51476;DHT22;37554;50.362;7.568;2023-08-30T15:15:49;24.70;53.10
51476;DHT22;37554;50.362;7.568;2023-08-30T15:18:15;24.70;53.20
51476;DHT22;37554;50.362;7.568;2023-08-30T15:20:40;24.70;53.20
51476;DHT22;37554;50.362;7.568;2023-08-30T15:23:06;24.60;53.30
51476;DHT22;37554;50.362;7.568;2023-08-30T15:25:32;24.60;53.30
51476;DHT22;37554;50.362;7.568;2023-08-30T15:27:58;24.60;53.50
51476;DHT22;37554;50.362;7.568;2023-08-30T15:30:23;24.50;53.80
51476;DHT22;37554;50.362;7.568;2023-08-30T15:32:49;24.50;54.00
51476;DHT22;37554;50.362;7.568;2023-08-30T15:35:14;24.50;54.20
51476;DHT22;37554;50.362;7.568;2023-08-30T15:37:40;24.40;54.30
51476;DHT22;37554;50.362;7.568;2023-08-30T15:40:06;24.50;54.50
51476;DHT22;37554;50.362;7.568;2023-08-30T15:42:34;24.50;54.70
51476;DHT22;37554;50.362;7.568;2023-08-30T15:45:01;24.50;55.10
51476;DHT22;37554;50.362;7.568;2023-08-30T15:47:27;24.60;54.60
51476;DHT22;37554;50.362;7.568;2023-08-30T15:49:52;24.60;54.70
51476;DHT22;37554;50.362;7.568;2023-08-30T15:52:18;24.60;54.70
51476;DHT22;37554;50.362;7.568;2023-08-30T15:54:44;24.70;54.80